POGODA: Poland

Lotnisko: Rzeszow-Jasionka

METAR KOD: EPRZ


METAR: EPRZ 302030Z 22003KT CAVOK 22/19 Q1010


BLOK
Pogoda METAR
302030Z
Dzien: 30, Godzina: 20:30 UTC.
22003KT
Wiatr z kierunku 220, o predkosci 6 km/h
CAVOK
Widzialnosc pow. 10 km, brak chmur pon. 1500 m., brak CB, brak opadow, burz i innych
22/19
Temperatura: powietrze 22°C, punkt rosy 19°C . Wilgotnosc wzgledna 86 %
Q1010
Cisnienie: 1010 hPa

Pogoda na innym lotnisku

Pogoda Gdansk-Rebiechowo WEATHER Poland  
Pogoda Katowice WEATHER Poland  
Pogoda Krakow WEATHER Poland  
Pogoda Poznan WEATHER Poland  
Pogoda Rzeszow-Jasionka WEATHER Poland  
Pogoda Szczecin WEATHER Poland  
Pogoda Warszawa-Okecie WEATHER Poland  
Pogoda Wroclaw Ii WEATHER Poland  

Pogoda w inny kraju

Strona startowa

(C) by GREGOR 2007
Ogłoszenia Towarzyskie